Hassan, Minnesota
Current Conditions -  °F | °C
As of 12:10 AM on Sunday 23 Nov 2014 (Local Time) from KMIC Reporting Station
Haze Haze  
Wind Chill: 35°   Ceiling: 1600
Heat Index: 41°   Visibility: 3mi
Dew Point: 38°   Wind: 9mph
Humidity: 89%   Direction: 150°SSE
Pressure: 29.47"   Gusts: NA
Location:  45.1964°N, 93.4758°W
Report Text: KMIC 230610Z AUTO 15008KT 3SM BR SCT009 OVC016 05/03 A2947 RMK AO2 T00500033
Loading
Personal Weather Stations






























Interactive Weather Map New forecast layout! Learn more

10-Day Weather Forecast

Advertisements
Track Severe Weather on mobile